Flight Track Log - Related Links

Times and Time Zones

All times are in EDT time to prevent confusion due to time zone crossing. See the ANA1187 flight status page for this flight to view local times or setup timezone preferences in your user account.


Time Position Orientation Groundspeed Altitude Reporting Facility
EDT Latitude Longitude Course Direction KTS MPH feet Rate Location/Type
Mon 12:39:45 AM 35.5461 139.7894 148° Southeast 150 173 800  Level FlightAware ADS-B
Mon 12:40:01 AM 35.5360 139.7966 148° Southeast 156 180 1,900 3,300 Climbing FlightAware ADS-B
Mon 12:40:25 AM 35.5219 139.8067 150° Southeast 165 190 3,000 2,615 Climbing FlightAware ADS-B
Mon 12:40:40 AM 35.5121 139.8136 149° Southeast 177 204 3,600 2,667 Climbing FlightAware ADS-B
Mon 12:40:43 AM 35.5075 139.8168 150° Southeast 186 214 3,800 2,000 Climbing FlightAware ADS-B
Mon 12:40:55 AM 35.4999 139.8220 153° Southeast 198 228 4,100 1,765 Climbing FlightAware ADS-B
Mon 12:41:00 AM 35.4951 139.8242 162° South 209 241 4,300 2,400 Climbing FlightAware ADS-B
Mon 12:41:05 AM 35.4903 139.8252 168° South 215 247 4,500 1,800 Climbing FlightAware ADS-B
Mon 12:41:10 AM 35.4851 139.8254 182° South 229 264 4,600 1,636 Climbing FlightAware ADS-B
Mon 12:41:16 AM 35.4798 139.8245 193° South 240 276 4,800 2,400 Climbing FlightAware ADS-B
Mon 12:41:20 AM 35.4743 139.8228 199° South 249 287 5,000 2,526 Climbing FlightAware ADS-B
Mon 12:41:35 AM 35.4577 139.8153 201° Southwest 266 306 5,600 3,120 Climbing FlightAware ADS-B
Mon 12:41:45 AM 35.4448 139.8093 202° Southwest 265 305 6,300 3,750 Climbing FlightAware ADS-B
Mon 12:41:51 AM 35.4395 139.8067 202° Southwest 272 313 6,600 4,000 Climbing FlightAware ADS-B
Mon 12:42:06 AM 35.4220 139.7979 203° Southwest 267 307 7,700 4,200 Climbing FlightAware ADS-B
Mon 12:42:21 AM 35.4053 139.7897 203° Southwest 267 307 8,700 5,000 Climbing FlightAware ADS-B
Mon 12:42:24 AM 35.3983 139.7861 203° Southwest 261 300 9,200 3,857 Climbing FlightAware ADS-B
Mon 12:42:35 AM 35.3881 139.7809 203° Southwest 275 316 9,600 2,615 Climbing FlightAware ADS-B
Mon 12:43:03 AM 35.3504 139.7624 202° Southwest 298 343 10,900 2,400 Climbing FlightAware ADS-B
Mon 12:43:10 AM 35.3442 139.7595 202° Southwest 311 358 11,000 1,929 Climbing FlightAware ADS-B
Mon 12:43:31 AM 35.3185 139.7413 222° Southwest 326 375 11,800 2,600 Climbing FlightAware ADS-B
Mon 12:43:40 AM 35.3087 139.7286 234° Southwest 328 377 12,300 3,250 Climbing FlightAware ADS-B
Mon 12:43:55 AM 35.2987 139.7085 248° West 333 383 13,100 3,143 Climbing FlightAware ADS-B
Mon 12:44:01 AM 35.2944 139.6941 255° West 335 386 13,400 3,600 Climbing FlightAware ADS-B
Mon 12:44:05 AM 35.2924 139.6826 259° West 336 387 13,700 2,757 Climbing FlightAware ADS-B
Mon 12:44:38 AM 35.2812 139.6237 258° West 358 412 15,100 2,813 Climbing FlightAware ADS-B
Mon 12:45:09 AM 35.2701 139.5603 258° West 370 426 16,700 3,000 Climbing FlightAware ADS-B
Mon 12:45:10 AM 35.2714 139.5681 258° West 369 425 16,700 3,097 Level FlightAware ADS-B
Mon 12:45:40 AM 35.2664 139.5403 258° West 376 433 18,300 3,360 Climbing FlightAware ADS-B
Mon 12:46:25 AM 35.2414 139.4038 257° West 377 434 20,900 3,520 Climbing FlightAware ADS-B
Mon 12:46:55 AM 35.2323 139.3547 257° West 374 430 22,700 3,000 Climbing FlightAware ADS-B
Mon 12:47:37 AM 35.2155 139.2646 257° West 382 440 24,500 1,953 Climbing FlightAware ADS-B
Mon 12:48:21 AM 35.1947 139.1533 258° West 418 481 25,500 1,734 Climbing FlightAware ADS-B
Mon 12:49:45 AM 35.1566 138.9523 257° West 447 514 28,200 2,032 Climbing FlightAware ADS-B
Mon 12:50:25 AM 35.1382 138.8552 257° West 448 516 29,700 2,093 Climbing FlightAware ADS-B
Mon 12:51:11 AM 35.1164 138.7417 257° West 439 505 31,200 1,899 Climbing FlightAware ADS-B
Mon 12:51:44 AM 35.1015 138.6639 257° West 428 493 32,200 1,703 Climbing FlightAware ADS-B
Mon 12:52:25 AM 35.0828 138.5671 257° West 431 496 33,300 1,576 Climbing FlightAware ADS-B
Mon 12:53:23 AM 35.0560 138.4300 257° West 425 489 34,800 1,435 Climbing FlightAware ADS-B
Mon 12:53:57 AM 35.0407 138.3520 257° West 419 482 35,500 805 Climbing FlightAware ADS-B
Mon 12:54:45 AM 35.0191 138.2418 257° West 422 486 35,900 349 Climbing FlightAware ADS-B
Mon 12:55:23 AM 35.0014 138.1532 256° West 422 486 36,000 75 Climbing FlightAware ADS-B
Mon 12:56:05 AM 34.9820 138.0559 256° West 423 487 36,000  Level FlightAware ADS-B
Mon 12:56:41 AM 34.9655 137.9739 256° West 426 490 36,000  Level FlightAware ADS-B
Mon 12:58:05 AM 34.9262 137.7784 257° West 425 489 36,000  Level FlightAware ADS-B
Mon 12:58:43 AM 34.8998 137.6929 234° Southwest 438 504 36,000  Level FlightAware ADS-B
Mon 12:59:41 AM 34.8316 137.5790 241° Southwest 429 494 36,000  Level FlightAware ADS-B
Mon 01:00:25 AM 34.7862 137.4896 236° Southwest 435 501 36,000  Level FlightAware ADS-B
Mon 01:01:22 AM 34.7180 137.3730 234° Southwest 434 499 36,000  Level FlightAware ADS-B
Mon 01:02:04 AM 34.6681 137.2903 235° Southwest 422 486 36,000  Level FlightAware ADS-B
Mon 01:03:04 AM 34.6009 137.1787 234° Southwest 417 480 36,000  Level FlightAware ADS-B
Mon 01:04:12 AM 34.5233 137.0496 234° Southwest 414 476 36,000  Level FlightAware ADS-B
Mon 01:06:48 AM 34.3488 136.7604 234° Southwest 409 471 36,000  Level FlightAware ADS-B
Mon 01:07:00 AM 34.3735 136.7485 239° Southwest  Level Estimated
Mon 01:07:45 AM 34.2859 136.6572 234° Southwest 409 471 36,000  Level FlightAware ADS-B
Mon 01:10:43 AM 34.0813 136.3227 234° Southwest 411 473 36,000  Level FlightAware ADS-B
Mon 01:45:41 AM 32.4468 132.3329 242° Southwest 394 453 36,000  Level FlightAware ADS-B
Mon 01:48:00 AM 32.3080 132.1011 235° Southwest  Level Estimated
Mon 01:49:00 AM 32.2480 132.0012 235° Southwest  Level Estimated
Mon 01:50:00 AM 32.1879 131.9015 235° Southwest  Level Estimated
Mon 01:51:00 AM 32.1277 131.8019 235° Southwest  Level Estimated
Mon 01:52:00 AM 32.0674 131.7025 234° Southwest  Level Estimated
Mon 01:53:00 AM 32.0070 131.6032 234° Southwest  Level Estimated
Mon 01:54:00 AM 31.9466 131.5040 234° Southwest  Level Estimated
Mon 01:55:00 AM 31.8861 131.4049 234° Southwest  Level Estimated
Mon 01:56:00 AM 31.8256 131.3060 234° Southwest  Level Estimated
Mon 01:57:00 AM 31.7649 131.2072 234° Southwest  Level Estimated
Mon 01:58:00 AM 31.7042 131.1085 234° Southwest  Level Estimated
Mon 01:59:00 AM 31.6434 131.0100 234° Southwest  Level Estimated
Mon 02:00:00 AM 31.5825 130.9116 234° Southwest  Level Estimated
Mon 02:01:00 AM 31.5215 130.8133 234° Southwest  Level Estimated
Mon 02:02:00 AM 31.4605 130.7151 234° Southwest  Level Estimated
Mon 02:03:00 AM 31.3994 130.6171 234° Southwest  Level Estimated
Mon 02:04:00 AM 31.3382 130.5192 234° Southwest  Level Estimated
Mon 02:05:00 AM 31.2770 130.4214 234° Southwest  Level Estimated
Mon 02:06:00 AM 31.2156 130.3238 234° Southwest  Level Estimated
Mon 02:07:00 AM 31.1542 130.2263 234° Southwest  Level Estimated
Mon 02:08:00 AM 31.0928 130.1289 234° Southwest  Level Estimated
Mon 02:09:00 AM 31.0312 130.0316 234° Southwest  Level Estimated
Mon 02:10:00 AM 30.9696 129.9345 234° Southwest  Level Estimated
Mon 02:11:00 AM 30.9079 129.8374 233° Southwest  Level Estimated
Mon 02:12:00 AM 30.8461 129.7406 233° Southwest  Level Estimated
Mon 02:13:00 AM 30.7843 129.6438 233° Southwest  Level Estimated
Mon 02:14:00 AM 30.7224 129.5471 233° Southwest  Level Estimated
Mon 02:15:00 AM 30.6604 129.4506 233° Southwest  Level Estimated
Mon 02:16:00 AM 30.5984 129.3542 233° Southwest  Level Estimated
Mon 02:17:00 AM 30.5362 129.2580 233° Southwest  Level Estimated
Mon 02:18:00 AM 30.4740 129.1618 233° Southwest  Level Estimated
Mon 02:19:00 AM 30.4118 129.0658 233° Southwest  Level Estimated
Mon 02:20:00 AM 30.3494 128.9699 233° Southwest  Level Estimated
Mon 02:21:00 AM 30.2870 128.8741 233° Southwest  Level Estimated
Mon 02:22:00 AM 30.2246 128.7785 233° Southwest  Level Estimated
Mon 02:23:00 AM 30.1620 128.6829 233° Southwest  Level Estimated
Mon 02:24:00 AM 30.0994 128.5875 233° Southwest  Level Estimated
Mon 02:25:00 AM 30.0367 128.4922 233° Southwest  Level Estimated
Mon 02:26:00 AM 29.9740 128.3970 233° Southwest  Level Estimated
Mon 02:27:00 AM 29.9111 128.3020 233° Southwest  Level Estimated
Mon 02:28:00 AM 29.8483 128.2071 233° Southwest  Level Estimated
Mon 02:29:00 AM 29.7853 128.1122 233° Southwest  Level Estimated
Mon 02:30:00 AM 29.7223 128.0176 233° Southwest  Level Estimated
Mon 02:31:00 AM 29.6592 127.9230 233° Southwest  Level Estimated
Mon 02:32:00 AM 29.5960 127.8285 232° Southwest  Level Estimated
Mon 02:33:00 AM 29.5328 127.7342 232° Southwest  Level Estimated
Mon 02:34:00 AM 29.4695 127.6400 232° Southwest  Level Estimated
Mon 02:35:00 AM 29.4062 127.5459 232° Southwest  Level Estimated
Mon 02:36:00 AM 29.3428 127.4519 232° Southwest  Level Estimated
Mon 02:37:00 AM 29.2793 127.3580 232° Southwest  Level Estimated
Mon 02:38:00 AM 29.2157 127.2643 232° Southwest  Level Estimated
Mon 02:39:00 AM 29.1521 127.1706 232° Southwest  Level Estimated
Mon 02:40:00 AM 29.0884 127.0771 232° Southwest  Level Estimated
Mon 02:41:00 AM 29.0247 126.9837 232° Southwest  Level Estimated
Mon 02:42:00 AM 28.9608 126.8904 232° Southwest  Level Estimated
Mon 02:43:00 AM 28.8970 126.7972 232° Southwest  Level Estimated
Mon 02:44:00 AM 28.8330 126.7042 232° Southwest  Level Estimated
Mon 02:45:00 AM 28.7690 126.6112 232° Southwest  Level Estimated
Mon 02:46:00 AM 28.7050 126.5184 232° Southwest  Level Estimated
Mon 02:47:00 AM 28.6408 126.4257 232° Southwest  Level Estimated
Mon 02:48:00 AM 28.5766 126.3331 232° Southwest  Level Estimated
Mon 02:49:00 AM 28.5124 126.2406 232° Southwest  Level Estimated
Mon 02:50:00 AM 28.4480 126.1482 232° Southwest  Level Estimated
Mon 02:51:00 AM 28.3837 126.0559 232° Southwest  Level Estimated
Mon 02:52:00 AM 28.3192 125.9638 232° Southwest  Level Estimated
Mon 02:53:00 AM 28.2547 125.8717 232° Southwest  Level Estimated
Mon 02:54:00 AM 28.1901 125.7798 231° Southwest  Level Estimated
Mon 02:55:00 AM 28.1255 125.6880 231° Southwest  Level Estimated
Mon 02:56:00 AM 28.0608 125.5963 231° Southwest  Level Estimated
Mon 02:57:00 AM 27.9961 125.5047 231° Southwest  Level Estimated
Mon 02:58:00 AM 27.9313 125.4132 231° Southwest  Level Estimated
Mon 02:59:00 AM 27.8664 125.3218 231° Southwest  Level Estimated
Mon 03:00:00 AM 27.8015 125.2306 231° Southwest  Level Estimated
Mon 03:01:00 AM 27.7365 125.1394 231° Southwest  Level Estimated
Mon 03:02:00 AM 27.6714 125.0483 231° Southwest  Level Estimated
Mon 03:03:00 AM 27.6063 124.9574 231° Southwest  Level Estimated
Mon 03:04:00 AM 27.5411 124.8666 231° Southwest  Level Estimated
Mon 03:05:00 AM 27.4759 124.7758 231° Southwest  Level Estimated
Mon 03:06:00 AM 27.4106 124.6852 231° Southwest  Level Estimated
Mon 03:07:00 AM 27.3453 124.5947 231° Southwest  Level Estimated
Mon 03:08:00 AM 27.2799 124.5043 231° Southwest  Level Estimated
Mon 03:09:00 AM 27.2144 124.4140 231° Southwest  Level Estimated
Mon 03:10:00 AM 27.1489 124.3238 231° Southwest  Level Estimated
Mon 03:11:00 AM 27.0833 124.2337 231° Southwest  Level Estimated
Mon 03:12:00 AM 27.0177 124.1437 231° Southwest  Level Estimated
Mon 03:13:00 AM 26.9520 124.0539 231° Southwest  Level Estimated
Mon 03:14:00 AM 26.8862 123.9641 231° Southwest  Level Estimated
Mon 03:15:00 AM 26.8204 123.8744 231° Southwest  Level Estimated
Mon 03:16:00 AM 26.7546 123.7849 231° Southwest  Level Estimated
Mon 03:17:00 AM 26.6886 123.6954 230° Southwest  Level Estimated
Mon 03:18:00 AM 26.6227 123.6060 230° Southwest  Level Estimated
Mon 03:19:00 AM 26.5566 123.5168 230° Southwest  Level Estimated
Mon 03:20:00 AM 26.4905 123.4276 230° Southwest  Level Estimated
Mon 03:21:00 AM 26.4244 123.3386 230° Southwest  Level Estimated
Mon 03:22:00 AM 26.3582 123.2496 230° Southwest  Level Estimated
Mon 03:23:00 AM 26.2920 123.1608 230° Southwest  Level Estimated
Mon 03:24:00 AM 26.2257 123.0721 230° Southwest  Level Estimated
Mon 03:25:00 AM 26.1593 122.9834 230° Southwest  Level Estimated
Mon 03:26:00 AM 26.0929 122.8949 230° Southwest  Level Estimated
Mon 03:27:00 AM 26.0264 122.8064 230° Southwest  Level Estimated
Mon 03:28:00 AM 25.9599 122.7181 230° Southwest  Level Estimated
Mon 03:29:00 AM 25.8933 122.6299 230° Southwest  Level Estimated
Mon 03:30:00 AM 25.8267 122.5417 230° Southwest  Level Estimated
Mon 03:31:00 AM 25.7600 122.4537 230° Southwest  Level Estimated
Mon 03:32:00 AM 25.6933 122.3657 230° Southwest  Level Estimated
Mon 03:33:00 AM 25.6265 122.2779 230° Southwest  Level Estimated
Mon 03:34:00 AM 25.5596 122.1901 230° Southwest  Level Estimated
Mon 03:35:00 AM 25.4927 122.1025 230° Southwest  Level Estimated
Mon 03:36:00 AM 25.4258 122.0150 230° Southwest  Level Estimated
Mon 03:37:00 AM 25.3588 121.9275 230° Southwest  Level Estimated
Mon 03:38:00 AM 25.2917 121.8401 230° Southwest  Level Estimated
Mon 03:39:00 AM 25.2246 121.7529 230° Southwest  Level Estimated
Mon 03:40:00 AM 25.1575 121.6657 230° Southwest  Level Estimated
Mon 03:41:00 AM 25.0903 121.5787 230° Southwest  Level Estimated
Mon 03:42:00 AM 25.0694 121.5517 230° Southwest  Level Estimated
Mon 03:43:00 AM 25.0694 121.5517 North  Level Estimated

Login

Don't have an account? Register now (free) for customized features, flight alerts, and more!